M I D A S
Marine Information and Data Acquisition System
Tripno 1379 of the Zeeleeuw from 2007-10-02 05:09:04 to 2007-10-02 18:04:07
Back to CruiseResearch ActivitiesStationsMapUnderway DataData graphs

EquipmentUnitsComment
TimeDGPSUTC
LatitudeDGPSDM.mWGS84
LongitudeDGPSDM.mWGS84
TemperatureSBE03/SBE38deg celciusITS90
ConductivitySBE21S/mITS90
SalinitySBE21 Practical Salinity Units
ChlorophylAChelsea fluorimeterg/lCalibrated in Aceton
Missing or incorrect values are displayed as -999
Sea surface data collected by the RV Zeeleeuw from 2007-10-02 05:12:44 to 2007-10-02 18:13:25
                                                                                    Next 1000 lines
Time Latitude Longitude Temperature Conductivity Salinity ChlorophylA
2007-10-02 05:12:54 51°13.597 2°56.093 -999 -999 -999 -999
2007-10-02 05:12:58 51°13.597 2°56.091 -999 -999 -999 -999
2007-10-02 05:13:04 51°13.598 2°56.089 -999 -999 -999 -999
2007-10-02 05:13:09 51°13.599 2°56.086 -999 -999 -999 -999
2007-10-02 05:13:14 51°13.599 2°56.082 -999 -999 -999 -999
2007-10-02 05:13:19 51°13.601 2°56.077 -999 -999 -999 -999
2007-10-02 05:13:25 51°13.602 2°56.071 -999 -999 -999 -999
2007-10-02 05:13:31 51°13.604 2°56.064 -999 -999 -999 -999
2007-10-02 05:13:37 51°13.606 2°56.055 -999 -999 -999 -999
2007-10-02 05:13:42 51°13.608 2°56.048 -999 -999 -999 -999
2007-10-02 05:13:48 51°13.611 2°56.038 -999 -999 -999 -999
2007-10-02 05:13:53 51°13.613 2°56.03 -999 -999 -999 -999
2007-10-02 05:13:58 51°13.616 2°56.021 -999 -999 -999 -999
2007-10-02 05:14:03 51°13.618 2°56.011 -999 -999 -999 -999
2007-10-02 05:14:08 51°13.621 2°56.002 -999 -999 -999 -999
2007-10-02 05:14:13 51°13.624 2°55.992 -999 -999 -999 -999
2007-10-02 05:14:18 51°13.627 2°55.982 -999 -999 -999 -999
2007-10-02 05:14:23 51°13.63 2°55.972 -999 -999 -999 -999
2007-10-02 05:14:28 51°13.634 2°55.962 -999 -999 -999 -999
2007-10-02 05:14:33 51°13.637 2°55.951 -999 -999 -999 -999
2007-10-02 05:14:38 51°13.641 2°55.941 -999 -999 -999 -999
2007-10-02 05:14:43 51°13.645 2°55.931 -999 -999 -999 -999
2007-10-02 05:14:48 51°13.649 2°55.921 -999 -999 -999 -999
2007-10-02 05:14:53 51°13.653 2°55.911 -999 -999 -999 -999
2007-10-02 05:14:58 51°13.657 2°55.901 -999 -999 -999 -999
2007-10-02 05:15:03 51°13.661 2°55.89 -999 -999 -999 -999
2007-10-02 05:15:08 51°13.665 2°55.881 -999 -999 -999 -999
2007-10-02 05:15:13 51°13.669 2°55.871 -999 -999 -999 -999
2007-10-02 05:15:18 51°13.673 2°55.861 -999 -999 -999 -999
2007-10-02 05:15:23 51°13.677 2°55.851 -999 -999 -999 -999
2007-10-02 05:15:28 51°13.681 2°55.842 -999 -999 -999 -999
2007-10-02 05:15:33 51°13.684 2°55.833 -999 -999 -999 -999
2007-10-02 05:15:38 51°13.688 2°55.825 -999 -999 -999 -999
2007-10-02 05:15:43 51°13.691 2°55.816 -999 -999 -999 -999
2007-10-02 05:15:48 51°13.694 2°55.808 -999 -999 -999 -999
2007-10-02 05:15:53 51°13.697 2°55.8 -999 -999 -999 -999
2007-10-02 05:15:58 51°13.699 2°55.792 -999 -999 -999 -999
2007-10-02 05:16:03 51°13.702 2°55.784 -999 -999 -999 -999
2007-10-02 05:16:08 51°13.704 2°55.777 -999 -999 -999 -999
2007-10-02 05:16:13 51°13.706 2°55.769 -999 -999 -999 -999
2007-10-02 05:16:18 51°13.708 2°55.762 -999 -999 -999 -999
2007-10-02 05:16:23 51°13.71 2°55.754 -999 -999 -999 -999
2007-10-02 05:16:28 51°13.712 2°55.747 -999 -999 -999 -999
2007-10-02 05:16:33 51°13.714 2°55.741 -999 -999 -999 -999
2007-10-02 05:16:38 51°13.715 2°55.734 -999 -999 -999 -999
2007-10-02 05:16:43 51°13.716 2°55.728 -999 -999 -999 -999
2007-10-02 05:16:48 51°13.718 2°55.722 -999 -999 -999 -999
2007-10-02 05:16:53 51°13.719 2°55.716 -999 -999 -999 -999
2007-10-02 05:16:58 51°13.72 2°55.711 -999 -999 -999 -999
2007-10-02 05:17:02 51°13.72 2°55.708 -999 -999 -999 -999
2007-10-02 05:17:07 51°13.721 2°55.704 -999 -999 -999 -999
2007-10-02 05:17:12 51°13.722 2°55.701 -999 -999 -999 -999
2007-10-02 05:17:17 51°13.722 2°55.697 -999 -999 -999 -999
2007-10-02 05:17:22 51°13.723 2°55.695 -999 -999 -999 -999
2007-10-02 05:17:27 51°13.723 2°55.693 -999 -999 -999 -999
2007-10-02 05:17:32 51°13.724 2°55.691 -999 -999 -999 -999
2007-10-02 05:17:37 51°13.724 2°55.69 -999 -999 -999 -999
2007-10-02 05:17:42 51°13.725 2°55.689 -999 -999 -999 -999
2007-10-02 05:17:47 51°13.725 2°55.688 -999 -999 -999 -999
2007-10-02 05:17:52 51°13.726 2°55.688 -999 -999 -999 -999
2007-10-02 05:17:56 51°13.726 2°55.688 -999 -999 -999 -999
2007-10-02 05:18:01 51°13.727 2°55.688 -999 -999 -999 -999
2007-10-02 05:18:06 51°13.728 2°55.689 -999 -999 -999 -999
2007-10-02 05:18:11 51°13.728 2°55.689 -999 -999 -999 -999
2007-10-02 05:18:16 51°13.729 2°55.691 -999 -999 -999 -999
2007-10-02 05:18:21 51°13.731 2°55.692 -999 -999 -999 -999
2007-10-02 05:18:26 51°13.732 2°55.694 -999 -999 -999 -999
2007-10-02 05:18:31 51°13.734 2°55.696 -999 -999 -999 -999
2007-10-02 05:18:36 51°13.736 2°55.697 -999 -999 -999 -999
2007-10-02 05:18:41 51°13.738 2°55.699 -999 -999 -999 -999
2007-10-02 05:18:45 51°13.74 2°55.7 -999 -999 -999 -999
2007-10-02 05:18:50 51°13.742 2°55.701 -999 -999 -999 -999
2007-10-02 05:18:55 51°13.744 2°55.702 -999 -999 -999 -999
2007-10-02 05:19:00 51°13.746 2°55.703 -999 -999 -999 -999
2007-10-02 05:19:05 51°13.748 2°55.704 -999 -999 -999 -999
2007-10-02 05:19:10 51°13.749 2°55.704 -999 -999 -999 -999
2007-10-02 05:19:15 51°13.749 2°55.704 -999 -999 -999 -999
2007-10-02 05:19:20 51°13.748 2°55.703 -999 -999 -999 -999
2007-10-02 05:19:25 51°13.747 2°55.703 -999 -999 -999 -999
2007-10-02 05:19:30 51°13.746 2°55.702 -999 -999 -999 -999
2007-10-02 05:19:34 51°13.744 2°55.702 -999 -999 -999 -999
2007-10-02 05:19:40 51°13.742 2°55.701 -999 -999 -999 -999
2007-10-02 05:19:46 51°13.739 2°55.7 -999 -999 -999 -999
2007-10-02 05:19:51 51°13.737 2°55.7 -999 -999 -999 -999
2007-10-02 05:19:57 51°13.736 2°55.699 -999 -999 -999 -999
2007-10-02 05:20:02 51°13.736 2°55.699 -999 -999 -999 -999
2007-10-02 05:20:08 51°13.738 2°55.698 -999 -999 -999 -999
2007-10-02 05:20:13 51°13.741 2°55.697 -999 -999 -999 -999
2007-10-02 05:20:18 51°13.745 2°55.695 -999 -999 -999 -999
2007-10-02 05:20:23 51°13.75 2°55.692 -999 -999 -999 -999
2007-10-02 05:20:28 51°13.757 2°55.689 -999 -999 -999 -999
2007-10-02 05:20:33 51°13.764 2°55.685 -999 -999 -999 -999
2007-10-02 05:20:38 51°13.771 2°55.681 -999 -999 -999 -999
2007-10-02 05:20:42 51°13.777 2°55.678 -999 -999 -999 -999
2007-10-02 05:20:47 51°13.784 2°55.673 -999 -999 -999 -999
2007-10-02 05:20:52 51°13.792 2°55.668 -999 -999 -999 -999
2007-10-02 05:20:57 51°13.8 2°55.663 -999 -999 -999 -999
2007-10-02 05:21:02 51°13.809 2°55.657 -999 -999 -999 -999
2007-10-02 05:21:07 51°13.819 2°55.651 -999 -999 -999 -999
2007-10-02 05:21:12 51°13.829 2°55.645 -999 -999 -999 -999
2007-10-02 05:21:17 51°13.839 2°55.638 -999 -999 -999 -999
2007-10-02 05:21:22 51°13.849 2°55.631 -999 -999 -999 -999
2007-10-02 05:21:27 51°13.86 2°55.623 -999 -999 -999 -999
2007-10-02 05:21:32 51°13.87 2°55.616 -999 -999 -999 -999
2007-10-02 05:21:36 51°13.879 2°55.609 -999 -999 -999 -999
2007-10-02 05:21:42 51°13.892 2°55.6 -999 -999 -999 -999
2007-10-02 05:21:46 51°13.901 2°55.593 -999 -999 -999 -999
2007-10-02 05:21:52 51°13.914 2°55.584 -999 -999 -999 -999
2007-10-02 05:21:57 51°13.926 2°55.576 -999 -999 -999 -999
2007-10-02 05:22:01 51°13.934 2°55.569 -999 -999 -999 -999
2007-10-02 05:22:06 51°13.945 2°55.561 -999 -999 -999 -999
2007-10-02 05:22:11 51°13.956 2°55.553 -999 -999 -999 -999
2007-10-02 05:22:16 51°13.967 2°55.544 -999 -999 -999 -999
2007-10-02 05:22:21 51°13.978 2°55.536 -999 -999 -999 -999
2007-10-02 05:22:26 51°13.989 2°55.528 -999 -999 -999 -999
2007-10-02 05:22:30 51°13.997 2°55.521 -999 -999 -999 -999
2007-10-02 05:22:36 51°14.01 2°55.512 -999 -999 -999 -999
2007-10-02 05:22:41 51°14.02 2°55.504 -999 -999 -999 -999
2007-10-02 05:22:46 51°14.03 2°55.496 -999 -999 -999 -999
2007-10-02 05:22:50 51°14.038 2°55.49 -999 -999 -999 -999
2007-10-02 05:22:55 51°14.048 2°55.483 -999 -999 -999 -999
2007-10-02 05:23:01 51°14.059 2°55.474 -999 -999 -999 -999
2007-10-02 05:23:06 51°14.068 2°55.467 -999 -999 -999 -999
2007-10-02 05:23:11 51°14.077 2°55.46 -999 -999 -999 -999
2007-10-02 05:23:17 51°14.087 2°55.452 -999 -999 -999 -999
2007-10-02 05:23:21 51°14.094 2°55.446 -999 -999 -999 -999
2007-10-02 05:23:26 51°14.103 2°55.439 -999 -999 -999 -999
2007-10-02 05:23:31 51°14.111 2°55.431 -999 -999 -999 -999
2007-10-02 05:23:37 51°14.121 2°55.422 -999 -999 -999 -999
2007-10-02 05:23:41 51°14.128 2°55.417 -999 -999 -999 -999
2007-10-02 05:23:46 51°14.136 2°55.409 -999 -999 -999 -999
2007-10-02 05:23:52 51°14.146 2°55.4 -999 -999 -999 -999
2007-10-02 05:23:57 51°14.154 2°55.392 -999 -999 -999 -999
2007-10-02 05:24:02 51°14.162 2°55.383 -999 -999 -999 -999
2007-10-02 05:24:07 51°14.171 2°55.374 -999 -999 -999 -999
2007-10-02 05:24:13 51°14.181 2°55.363 -999 -999 -999 -999
2007-10-02 05:24:18 51°14.19 2°55.352 -999 -999 -999 -999
2007-10-02 05:24:22 51°14.197 2°55.344 -999 -999 -999 -999
2007-10-02 05:24:28 51°14.208 2°55.33 -999 -999 -999 -999
2007-10-02 05:24:33 51°14.218 2°55.318 -999 -999 -999 -999
2007-10-02 05:24:38 51°14.227 2°55.305 -999 -999 -999 -999
2007-10-02 05:24:42 51°14.235 2°55.294 -999 -999 -999 -999
2007-10-02 05:24:47 51°14.245 2°55.28 -999 -999 -999 -999
2007-10-02 05:24:52 51°14.255 2°55.265 -999 -999 -999 -999
2007-10-02 05:24:57 51°14.264 2°55.25 -999 -999 -999 -999
2007-10-02 05:25:02 51°14.273 2°55.234 -999 -999 -999 -999
2007-10-02 05:25:06 51°14.28 2°55.22 -999 -999 -999 -999
2007-10-02 05:25:12 51°14.291 2°55.199 -999 -999 -999 -999
2007-10-02 05:25:17 51°14.3 2°55.181 -999 -999 -999 -999
2007-10-02 05:25:21 51°14.307 2°55.166 -999 -999 -999 -999
2007-10-02 05:25:26 51°14.316 2°55.146 -999 -999 -999 -999
2007-10-02 05:25:31 51°14.325 2°55.126 -999 -999 -999 -999
2007-10-02 05:25:36 51°14.335 2°55.106 -999 -999 -999 -999
2007-10-02 05:25:41 51°14.346 2°55.085 -999 -999 -999 -999
2007-10-02 05:25:46 51°14.356 2°55.064 -999 -999 -999 -999
2007-10-02 05:25:50 51°14.365 2°55.047 -999 -999 -999 -999
2007-10-02 05:25:55 51°14.377 2°55.027 -999 -999 -999 -999
2007-10-02 05:26:00 51°14.389 2°55.007 -999 -999 -999 -999
2007-10-02 05:26:05 51°14.403 2°54.988 -999 -999 -999 -999
2007-10-02 05:26:10 51°14.416 2°54.97 -999 -999 -999 -999
2007-10-02 05:26:14 51°14.427 2°54.956 -999 -999 -999 -999
2007-10-02 05:26:20 51°14.444 2°54.936 -999 -999 -999 -999
2007-10-02 05:26:25 51°14.459 2°54.92 -999 -999 -999 -999
2007-10-02 05:26:29 51°14.471 2°54.909 -999 -999 -999 -999
2007-10-02 05:26:34 51°14.487 2°54.894 -999 -999 -999 -999
2007-10-02 05:26:38 51°14.499 2°54.883 -999 -999 -999 -999
2007-10-02 05:26:44 51°14.517 2°54.866 -999 -999 -999 -999
2007-10-02 05:26:49 51°14.533 2°54.852 -999 -999 -999 -999
2007-10-02 05:26:54 51°14.549 2°54.839 -999 -999 -999 -999
2007-10-02 05:26:58 51°14.562 2°54.829 -999 -999 -999 -999
2007-10-02 05:27:04 51°14.58 2°54.813 -999 -999 -999 -999
2007-10-02 05:27:09 51°14.596 2°54.801 -999 -999 -999 -999
2007-10-02 05:27:14 51°14.612 2°54.788 -999 -999 -999 -999
2007-10-02 05:27:19 51°14.627 2°54.775 -999 -999 -999 -999
2007-10-02 05:27:24 51°14.643 2°54.761 -999 -999 -999 -999
2007-10-02 05:27:29 51°14.658 2°54.747 -999 -999 -999 -999
2007-10-02 05:27:34 51°14.673 2°54.733 -999 -999 -999 -999
2007-10-02 05:27:39 51°14.688 2°54.719 -999 -999 -999 -999
2007-10-02 05:27:44 51°14.703 2°54.705 -999 -999 -999 -999
2007-10-02 05:27:49 51°14.718 2°54.692 -999 -999 -999 -999
2007-10-02 05:27:54 51°14.733 2°54.678 -999 -999 -999 -999
2007-10-02 05:27:59 51°14.748 2°54.665 -999 -999 -999 -999
2007-10-02 05:28:04 51°14.763 2°54.651 -999 -999 -999 -999
2007-10-02 05:28:09 51°14.779 2°54.636 -999 -999 -999 -999
2007-10-02 05:28:14 51°14.794 2°54.623 -999 -999 -999 -999
2007-10-02 05:28:18 51°14.806 2°54.611 -999 -999 -999 -999
2007-10-02 05:28:24 51°14.824 2°54.595 -999 -999 -999 -999
2007-10-02 05:28:29 51°14.84 2°54.582 -999 -999 -999 -999
2007-10-02 05:28:34 51°14.856 2°54.57 -999 -999 -999 -999
2007-10-02 05:28:39 51°14.872 2°54.558 -999 -999 -999 -999
2007-10-02 05:28:44 51°14.888 2°54.546 -999 -999 -999 -999
2007-10-02 05:28:49 51°14.904 2°54.534 -999 -999 -999 -999
2007-10-02 05:28:54 51°14.92 2°54.521 -999 -999 -999 -999
2007-10-02 05:28:59 51°14.936 2°54.509 -999 -999 -999 -999
2007-10-02 05:29:04 51°14.952 2°54.497 -999 -999 -999 -999
2007-10-02 05:29:09 51°14.968 2°54.485 -999 -999 -999 -999
2007-10-02 05:29:14 51°14.984 2°54.473 -999 -999 -999 -999
2007-10-02 05:29:19 51°15 2°54.46 -999 -999 -999 -999
2007-10-02 05:29:24 51°15.015 2°54.447 -999 -999 -999 -999
2007-10-02 05:29:29 51°15.031 2°54.435 -999 -999 -999 -999
2007-10-02 05:29:34 51°15.047 2°54.421 -999 -999 -999 -999
2007-10-02 05:29:38 51°15.059 2°54.411 -999 -999 -999 -999
2007-10-02 05:29:44 51°15.077 2°54.393 -999 -999 -999 -999
2007-10-02 05:29:49 51°15.093 2°54.379 -999 -999 -999 -999
2007-10-02 05:29:54 51°15.108 2°54.365 -999 -999 -999 -999
2007-10-02 05:29:58 51°15.12 2°54.353 -999 -999 -999 -999
2007-10-02 05:30:04 51°15.138 2°54.336 -999 -999 -999 -999
2007-10-02 05:30:09 51°15.154 2°54.322 -999 -999 -999 -999
2007-10-02 05:30:14 51°15.169 2°54.309 -999 -999 -999 -999
2007-10-02 05:30:19 51°15.184 2°54.295 -999 -999 -999 -999
2007-10-02 05:30:24 51°15.199 2°54.281 -999 -999 -999 -999
2007-10-02 05:30:29 51°15.215 2°54.268 -999 -999 -999 -999
2007-10-02 05:30:34 51°15.23 2°54.253 -999 -999 -999 -999
2007-10-02 05:30:39 51°15.245 2°54.24 -999 -999 -999 -999
2007-10-02 05:30:44 51°15.26 2°54.226 -999 -999 -999 -999
2007-10-02 05:30:49 51°15.275 2°54.211 -999 -999 -999 -999
2007-10-02 05:30:54 51°15.29 2°54.197 -999 -999 -999 -999
2007-10-02 05:30:58 51°15.302 2°54.186 -999 -999 -999 -999
2007-10-02 05:31:04 51°15.32 2°54.169 -999 -999 -999 -999
2007-10-02 05:31:09 51°15.335 2°54.155 -999 -999 -999 -999
2007-10-02 05:31:14 51°15.35 2°54.14 -999 -999 -999 -999
2007-10-02 05:31:19 51°15.365 2°54.126 -999 -999 -999 -999
2007-10-02 05:31:24 51°15.379 2°54.112 -999 -999 -999 -999
2007-10-02 05:31:29 51°15.394 2°54.098 -999 -999 -999 -999
2007-10-02 05:31:34 51°15.409 2°54.084 -999 -999 -999 -999
2007-10-02 05:31:39 51°15.424 2°54.07 -999 -999 -999 -999
2007-10-02 05:31:44 51°15.44 2°54.056 -999 -999 -999 -999
2007-10-02 05:31:49 51°15.455 2°54.042 -999 -999 -999 -999
2007-10-02 05:31:54 51°15.47 2°54.028 -999 -999 -999 -999
2007-10-02 05:31:58 51°15.482 2°54.016 -999 -999 -999 -999
2007-10-02 05:32:04 51°15.5 2°54 -999 -999 -999 -999
2007-10-02 05:32:09 51°15.516 2°53.985 -999 -999 -999 -999
2007-10-02 05:32:14 51°15.531 2°53.971 -999 -999 -999 -999
2007-10-02 05:32:19 51°15.546 2°53.958 -999 -999 -999 -999
2007-10-02 05:32:24 51°15.562 2°53.944 -999 -999 -999 -999
2007-10-02 05:32:29 51°15.578 2°53.931 -999 -999 -999 -999
2007-10-02 05:32:34 51°15.594 2°53.917 -999 -999 -999 -999
2007-10-02 05:32:39 51°15.609 2°53.904 -999 -999 -999 -999
2007-10-02 05:32:44 51°15.625 2°53.89 -999 -999 -999 -999
2007-10-02 05:32:49 51°15.641 2°53.877 -999 -999 -999 -999
2007-10-02 05:32:54 51°15.656 2°53.863 -999 -999 -999 -999
2007-10-02 05:32:58 51°15.669 2°53.853 -999 -999 -999 -999
2007-10-02 05:33:04 51°15.687 2°53.836 -999 -999 -999 -999
2007-10-02 05:33:09 51°15.703 2°53.823 -999 -999 -999 -999
2007-10-02 05:33:14 51°15.719 2°53.809 -999 -999 -999 -999
2007-10-02 05:33:19 51°15.734 2°53.796 -999 -999 -999 -999
2007-10-02 05:33:24 51°15.75 2°53.783 -999 -999 -999 -999
2007-10-02 05:33:29 51°15.765 2°53.77 -999 -999 -999 -999
2007-10-02 05:33:34 51°15.781 2°53.756 -999 -999 -999 -999
2007-10-02 05:33:39 51°15.797 2°53.743 -999 -999 -999 -999
2007-10-02 05:33:44 51°15.812 2°53.731 -999 -999 -999 -999
2007-10-02 05:33:49 51°15.827 2°53.717 -999 -999 -999 -999
2007-10-02 05:33:54 51°15.843 2°53.704 -999 -999 -999 -999
2007-10-02 05:33:59 51°15.858 2°53.691 -999 -999 -999 -999
2007-10-02 05:34:04 51°15.874 2°53.678 -999 -999 -999 -999
2007-10-02 05:34:09 51°15.889 2°53.665 -999 -999 -999 -999
2007-10-02 05:34:14 51°15.905 2°53.652 -999 -999 -999 -999
2007-10-02 05:34:18 51°15.917 2°53.642 -999 -999 -999 -999
2007-10-02 05:34:24 51°15.936 2°53.626 -999 -999 -999 -999
2007-10-02 05:34:29 51°15.951 2°53.613 -999 -999 -999 -999
2007-10-02 05:34:34 51°15.967 2°53.601 -999 -999 -999 -999
2007-10-02 05:34:39 51°15.982 2°53.587 -999 -999 -999 -999
2007-10-02 05:34:44 51°15.998 2°53.574 -999 -999 -999 -999
2007-10-02 05:34:49 51°16.013 2°53.562 -999 -999 -999 -999
2007-10-02 05:34:54 51°16.029 2°53.549 -999 -999 -999 -999
2007-10-02 05:34:59 51°16.044 2°53.536 -999 -999 -999 -999
2007-10-02 05:35:04 51°16.059 2°53.523 -999 -999 -999 -999
2007-10-02 05:35:09 51°16.075 2°53.51 -999 -999 -999 -999
2007-10-02 05:35:14 51°16.091 2°53.497 -999 -999 -999 -999
2007-10-02 05:35:19 51°16.106 2°53.485 -999 -999 -999 -999
2007-10-02 05:35:24 51°16.122 2°53.472 -999 -999 -999 -999
2007-10-02 05:35:29 51°16.137 2°53.459 -999 -999 -999 -999
2007-10-02 05:35:34 51°16.153 2°53.446 -999 -999 -999 -999
2007-10-02 05:35:38 51°16.165 2°53.435 -999 -999 -999 -999
2007-10-02 05:35:44 51°16.184 2°53.42 -999 -999 -999 -999
2007-10-02 05:35:49 51°16.199 2°53.407 -999 -999 -999 -999
2007-10-02 05:35:54 51°16.215 2°53.394 -999 -999 -999 -999
2007-10-02 05:35:58 51°16.227 2°53.384 -999 -999 -999 -999
2007-10-02 05:36:04 51°16.246 2°53.368 -999 -999 -999 -999
2007-10-02 05:36:09 51°16.262 2°53.355 -999 -999 -999 -999
2007-10-02 05:36:14 51°16.277 2°53.343 -999 -999 -999 -999
2007-10-02 05:36:19 51°16.293 2°53.33 -999 -999 -999 -999
2007-10-02 05:36:24 51°16.308 2°53.316 -999 -999 -999 -999
2007-10-02 05:36:29 51°16.323 2°53.304 -999 -999 -999 -999
2007-10-02 05:36:34 51°16.339 2°53.291 -999 -999 -999 -999
2007-10-02 05:36:39 51°16.354 2°53.278 -999 -999 -999 -999
2007-10-02 05:36:44 51°16.37 2°53.265 -999 -999 -999 -999
2007-10-02 05:36:49 51°16.385 2°53.253 -999 -999 -999 -999
2007-10-02 05:36:54 51°16.401 2°53.24 -999 -999 -999 -999
2007-10-02 05:36:58 51°16.413 2°53.229 -999 -999 -999 -999
2007-10-02 05:37:04 51°16.432 2°53.214 -999 -999 -999 -999
2007-10-02 05:37:09 51°16.447 2°53.201 -999 -999 -999 -999
2007-10-02 05:37:14 51°16.463 2°53.188 -999 -999 -999 -999
2007-10-02 05:37:19 51°16.479 2°53.175 -999 -999 -999 -999
2007-10-02 05:37:24 51°16.494 2°53.162 -999 -999 -999 -999
2007-10-02 05:37:29 51°16.51 2°53.149 -999 -999 -999 -999
2007-10-02 05:37:34 51°16.525 2°53.136 -999 -999 -999 -999
2007-10-02 05:37:39 51°16.541 2°53.122 -999 -999 -999 -999
2007-10-02 05:37:44 51°16.557 2°53.109 -999 -999 -999 -999
2007-10-02 05:37:49 51°16.572 2°53.096 -999 -999 -999 -999
2007-10-02 05:37:54 51°16.588 2°53.083 -999 -999 -999 -999
2007-10-02 05:37:58 51°16.6 2°53.073 -999 -999 -999 -999
2007-10-02 05:38:04 51°16.619 2°53.057 -999 -999 -999 -999
2007-10-02 05:38:09 51°16.634 2°53.043 -999 -999 -999 -999
2007-10-02 05:38:14 51°16.649 2°53.03 -999 -999 -999 -999
2007-10-02 05:38:19 51°16.665 2°53.017 -999 -999 -999 -999
2007-10-02 05:38:24 51°16.68 2°53.003 -999 -999 -999 -999
2007-10-02 05:38:29 51°16.696 2°52.99 -999 -999 -999 -999
2007-10-02 05:38:34 51°16.711 2°52.977 -999 -999 -999 -999
2007-10-02 05:38:39 51°16.727 2°52.963 -999 -999 -999 -999
2007-10-02 05:38:44 51°16.742 2°52.95 -999 -999 -999 -999
2007-10-02 05:38:49 51°16.758 2°52.937 -999 -999 -999 -999
2007-10-02 05:38:54 51°16.774 2°52.924 -999 -999 -999 -999
2007-10-02 05:38:59 51°16.789 2°52.91 -999 -999 -999 -999
2007-10-02 05:39:04 51°16.805 2°52.896 -999 -999 -999 -999
2007-10-02 05:39:09 51°16.82 2°52.883 -999 -999 -999 -999
2007-10-02 05:39:14 51°16.836 2°52.87 -999 -999 -999 -999
2007-10-02 05:39:18 51°16.848 2°52.86 -999 -999 -999 -999
2007-10-02 05:39:24 51°16.867 2°52.844 -999 -999 -999 -999
2007-10-02 05:39:29 51°16.883 2°52.831 -999 -999 -999 -999
2007-10-02 05:39:34 51°16.898 2°52.818 -999 -999 -999 -999
2007-10-02 05:39:39 51°16.914 2°52.805 -999 -999 -999 -999
2007-10-02 05:39:44 51°16.929 2°52.791 -999 -999 -999 -999
2007-10-02 05:39:49 51°16.945 2°52.778 -999 -999 -999 -999
2007-10-02 05:39:54 51°16.961 2°52.764 -999 -999 -999 -999
2007-10-02 05:39:59 51°16.976 2°52.751 -999 -999 -999 -999
2007-10-02 05:40:04 51°16.992 2°52.738 -999 -999 -999 -999
2007-10-02 05:40:09 51°17.008 2°52.724 -999 -999 -999 -999
2007-10-02 05:40:14 51°17.023 2°52.71 -999 -999 -999 -999
2007-10-02 05:40:19 51°17.039 2°52.697 -999 -999 -999 -999
2007-10-02 05:40:24 51°17.055 2°52.683 -999 -999 -999 -999
2007-10-02 05:40:29 51°17.07 2°52.67 -999 -999 -999 -999
2007-10-02 05:40:34 51°17.086 2°52.657 -999 -999 -999 -999
2007-10-02 05:40:38 51°17.098 2°52.646 -999 -999 -999 -999
2007-10-02 05:40:44 51°17.117 2°52.63 -999 -999 -999 -999
2007-10-02 05:40:49 51°17.132 2°52.616 -999 -999 -999 -999
2007-10-02 05:40:54 51°17.148 2°52.603 -999 -999 -999 -999
2007-10-02 05:40:58 51°17.16 2°52.592 -999 -999 -999 -999
2007-10-02 05:41:04 51°17.178 2°52.576 -999 -999 -999 -999
2007-10-02 05:41:09 51°17.193 2°52.562 -999 -999 -999 -999
2007-10-02 05:41:14 51°17.209 2°52.549 -999 -999 -999 -999
2007-10-02 05:41:19 51°17.224 2°52.536 -999 -999 -999 -999
2007-10-02 05:41:24 51°17.239 2°52.522 -999 -999 -999 -999
2007-10-02 05:41:29 51°17.255 2°52.509 -999 -999 -999 -999
2007-10-02 05:41:34 51°17.27 2°52.495 -999 -999 -999 -999
2007-10-02 05:41:39 51°17.285 2°52.482 -999 -999 -999 -999
2007-10-02 05:41:44 51°17.301 2°52.467 -999 -999 -999 -999
2007-10-02 05:41:49 51°17.316 2°52.454 -999 -999 -999 -999
2007-10-02 05:41:54 51°17.331 2°52.441 -999 -999 -999 -999
2007-10-02 05:41:58 51°17.344 2°52.43 -999 -999 -999 -999
2007-10-02 05:42:04 51°17.363 2°52.414 -999 -999 -999 -999
2007-10-02 05:42:09 51°17.378 2°52.4 -999 -999 -999 -999
2007-10-02 05:42:14 51°17.393 2°52.386 -999 -999 -999 -999
2007-10-02 05:42:19 51°17.409 2°52.373 -999 -999 -999 -999
2007-10-02 05:42:24 51°17.425 2°52.361 -999 -999 -999 -999
2007-10-02 05:42:29 51°17.44 2°52.347 -999 -999 -999 -999
2007-10-02 05:42:34 51°17.456 2°52.334 -999 -999 -999 -999
2007-10-02 05:42:39 51°17.472 2°52.321 -999 -999 -999 -999
2007-10-02 05:42:44 51°17.488 2°52.308 -999 -999 -999 -999
2007-10-02 05:42:49 51°17.504 2°52.295 -999 -999 -999 -999
2007-10-02 05:42:54 51°17.52 2°52.282 -999 -999 -999 -999
2007-10-02 05:42:58 51°17.532 2°52.271 -999 -999 -999 -999
2007-10-02 05:43:04 51°17.551 2°52.255 -999 -999 -999 -999
2007-10-02 05:43:09 51°17.567 2°52.242 -999 -999 -999 -999
2007-10-02 05:43:14 51°17.583 2°52.228 -999 -999 -999 -999
2007-10-02 05:43:19 51°17.598 2°52.215 -999 -999 -999 -999
2007-10-02 05:43:24 51°17.614 2°52.202 -999 -999 -999 -999
2007-10-02 05:43:29 51°17.63 2°52.19 -999 -999 -999 -999
2007-10-02 05:43:34 51°17.646 2°52.176 -999 -999 -999 -999
2007-10-02 05:43:39 51°17.661 2°52.163 -999 -999 -999 -999
2007-10-02 05:43:44 51°17.677 2°52.15 -999 -999 -999 -999
2007-10-02 05:43:49 51°17.693 2°52.137 -999 -999 -999 -999
2007-10-02 05:43:54 51°17.709 2°52.123 -999 -999 -999 -999
2007-10-02 05:43:59 51°17.724 2°52.11 -999 -999 -999 -999
2007-10-02 05:44:04 51°17.74 2°52.096 -999 -999 -999 -999
2007-10-02 05:44:09 51°17.755 2°52.083 -999 -999 -999 -999
2007-10-02 05:44:14 51°17.771 2°52.07 -999 -999 -999 -999
2007-10-02 05:44:18 51°17.784 2°52.06 -999 -999 -999 -999
2007-10-02 05:44:24 51°17.802 2°52.044 -999 -999 -999 -999
2007-10-02 05:44:29 51°17.818 2°52.031 -999 -999 -999 -999
2007-10-02 05:44:34 51°17.834 2°52.018 -999 -999 -999 -999
2007-10-02 05:44:39 51°17.85 2°52.004 -999 -999 -999 -999
2007-10-02 05:44:44 51°17.866 2°51.991 -999 -999 -999 -999
2007-10-02 05:44:49 51°17.882 2°51.978 -999 -999 -999 -999
2007-10-02 05:44:54 51°17.898 2°51.965 -999 -999 -999 -999
2007-10-02 05:44:59 51°17.913 2°51.952 -999 -999 -999 -999
2007-10-02 05:45:04 51°17.929 2°51.939 -999 -999 -999 -999
2007-10-02 05:45:09 51°17.945 2°51.926 -999 -999 -999 -999
2007-10-02 05:45:14 51°17.961 2°51.912 -999 -999 -999 -999
2007-10-02 05:45:19 51°17.977 2°51.9 -999 -999 -999 -999
2007-10-02 05:45:24 51°17.993 2°51.887 -999 -999 -999 -999
2007-10-02 05:45:29 51°18.009 2°51.874 -999 -999 -999 -999
2007-10-02 05:45:34 51°18.025 2°51.861 -999 -999 -999 -999
2007-10-02 05:45:38 51°18.038 2°51.851 -999 -999 -999 -999
2007-10-02 05:45:44 51°18.058 2°51.835 -999 -999 -999 -999
2007-10-02 05:45:49 51°18.074 2°51.823 -999 -999 -999 -999
2007-10-02 05:45:54 51°18.09 2°51.81 -999 -999 -999 -999
2007-10-02 05:45:58 51°18.103 2°51.8 -999 -999 -999 -999
2007-10-02 05:46:04 51°18.122 2°51.785 -999 -999 -999 -999
2007-10-02 05:46:09 51°18.138 2°51.772 -999 -999 -999 -999
2007-10-02 05:46:14 51°18.155 2°51.76 -999 -999 -999 -999
2007-10-02 05:46:19 51°18.17 2°51.747 -999 -999 -999 -999
2007-10-02 05:46:24 51°18.186 2°51.734 -999 -999 -999 -999
2007-10-02 05:46:29 51°18.201 2°51.72 -999 -999 -999 -999
2007-10-02 05:46:34 51°18.217 2°51.707 -999 -999 -999 -999
2007-10-02 05:46:39 51°18.233 2°51.693 -999 -999 -999 -999
2007-10-02 05:46:44 51°18.248 2°51.679 -999 -999 -999 -999
2007-10-02 05:46:49 51°18.264 2°51.666 -999 -999 -999 -999
2007-10-02 05:46:54 51°18.28 2°51.653 -999 -999 -999 -999
2007-10-02 05:46:58 51°18.293 2°51.642 -999 -999 -999 -999
2007-10-02 05:47:04 51°18.312 2°51.627 -999 -999 -999 -999
2007-10-02 05:47:09 51°18.328 2°51.614 -999 -999 -999 -999
2007-10-02 05:47:14 51°18.344 2°51.601 -999 -999 -999 -999
2007-10-02 05:47:19 51°18.36 2°51.588 -999 -999 -999 -999
2007-10-02 05:47:24 51°18.376 2°51.574 -999 -999 -999 -999
2007-10-02 05:47:29 51°18.392 2°51.561 -999 -999 -999 -999
2007-10-02 05:47:34 51°18.408 2°51.548 -999 -999 -999 -999
2007-10-02 05:47:39 51°18.423 2°51.535 -999 -999 -999 -999
2007-10-02 05:47:44 51°18.439 2°51.522 -999 -999 -999 -999
2007-10-02 05:47:49 51°18.455 2°51.509 -999 -999 -999 -999
2007-10-02 05:47:54 51°18.471 2°51.496 -999 -999 -999 -999
2007-10-02 05:47:58 51°18.484 2°51.485 -999 -999 -999 -999
2007-10-02 05:48:04 51°18.503 2°51.47 -999 -999 -999 -999
2007-10-02 05:48:09 51°18.519 2°51.457 -999 -999 -999 -999
2007-10-02 05:48:14 51°18.536 2°51.444 -999 -999 -999 -999
2007-10-02 05:48:19 51°18.552 2°51.431 -999 -999 -999 -999
2007-10-02 05:48:24 51°18.568 2°51.418 -999 -999 -999 -999
2007-10-02 05:48:29 51°18.583 2°51.405 -999 -999 -999 -999
2007-10-02 05:48:34 51°18.6 2°51.392 -999 -999 -999 -999
2007-10-02 05:48:39 51°18.615 2°51.379 -999 -999 -999 -999
2007-10-02 05:48:44 51°18.631 2°51.366 -999 -999 -999 -999
2007-10-02 05:48:49 51°18.647 2°51.353 -999 -999 -999 -999
2007-10-02 05:48:54 51°18.663 2°51.339 -999 -999 -999 -999
2007-10-02 05:48:58 51°18.675 2°51.328 -999 -999 -999 -999
2007-10-02 05:49:04 51°18.694 2°51.313 -999 -999 -999 -999
2007-10-02 05:49:09 51°18.71 2°51.299 -999 -999 -999 -999
2007-10-02 05:49:14 51°18.726 2°51.286 -999 -999 -999 -999
2007-10-02 05:49:19 51°18.742 2°51.273 -999 -999 -999 -999
2007-10-02 05:49:24 51°18.758 2°51.26 -999 -999 -999 -999
2007-10-02 05:49:29 51°18.774 2°51.246 -999 -999 -999 -999
2007-10-02 05:49:34 51°18.789 2°51.233 -999 -999 -999 -999
2007-10-02 05:49:39 51°18.805 2°51.22 -999 -999 -999 -999
2007-10-02 05:49:44 51°18.821 2°51.207 -999 -999 -999 -999
2007-10-02 05:49:49 51°18.836 2°51.194 -999 -999 -999 -999
2007-10-02 05:49:54 51°18.852 2°51.181 -999 -999 -999 -999
2007-10-02 05:49:59 51°18.868 2°51.168 -999 -999 -999 -999
2007-10-02 05:50:04 51°18.883 2°51.154 -999 -999 -999 -999
2007-10-02 05:50:09 51°18.899 2°51.141 -999 -999 -999 -999
2007-10-02 05:50:14 51°18.914 2°51.127 -999 -999 -999 -999
2007-10-02 05:50:18 51°18.927 2°51.117 -999 -999 -999 -999
2007-10-02 05:50:24 51°18.945 2°51.1 -999 -999 -999 -999
2007-10-02 05:50:29 51°18.961 2°51.087 -999 -999 -999 -999
2007-10-02 05:50:34 51°18.977 2°51.073 -999 -999 -999 -999
2007-10-02 05:50:39 51°18.992 2°51.06 -999 -999 -999 -999
2007-10-02 05:50:44 51°19.008 2°51.047 -999 -999 -999 -999
2007-10-02 05:50:49 51°19.024 2°51.033 -999 -999 -999 -999
2007-10-02 05:50:54 51°19.04 2°51.02 -999 -999 -999 -999
2007-10-02 05:50:59 51°19.055 2°51.006 -999 -999 -999 -999
2007-10-02 05:51:04 51°19.071 2°50.993 -999 -999 -999 -999
2007-10-02 05:51:09 51°19.087 2°50.98 -999 -999 -999 -999
2007-10-02 05:51:14 51°19.102 2°50.966 -999 -999 -999 -999
2007-10-02 05:51:19 51°19.118 2°50.953 -999 -999 -999 -999
2007-10-02 05:51:24 51°19.134 2°50.939 -999 -999 -999 -999
2007-10-02 05:51:29 51°19.15 2°50.926 -999 -999 -999 -999
2007-10-02 05:51:34 51°19.165 2°50.913 -999 -999 -999 -999
2007-10-02 05:51:38 51°19.178 2°50.902 -999 -999 -999 -999
2007-10-02 05:51:44 51°19.197 2°50.886 -999 -999 -999 -999
2007-10-02 05:51:49 51°19.213 2°50.873 -999 -999 -999 -999
2007-10-02 05:51:54 51°19.228 2°50.86 -999 -999 -999 -999
2007-10-02 05:51:58 51°19.241 2°50.849 -999 -999 -999 -999
2007-10-02 05:52:04 51°19.259 2°50.833 -999 -999 -999 -999
2007-10-02 05:52:09 51°19.275 2°50.82 -999 -999 -999 -999
2007-10-02 05:52:14 51°19.29 2°50.806 -999 -999 -999 -999
2007-10-02 05:52:19 51°19.306 2°50.793 -999 -999 -999 -999
2007-10-02 05:52:25 51°19.324 2°50.777 -999 -999 -999 -999
2007-10-02 05:52:29 51°19.336 2°50.766 -999 -999 -999 -999
2007-10-02 05:52:34 51°19.352 2°50.754 -999 -999 -999 -999
2007-10-02 05:52:39 51°19.368 2°50.74 -999 -999 -999 -999
2007-10-02 05:52:44 51°19.383 2°50.727 -999 -999 -999 -999
2007-10-02 05:52:49 51°19.398 2°50.713 -999 -999 -999 -999
2007-10-02 05:52:54 51°19.414 2°50.7 -999 -999 -999 -999
2007-10-02 05:52:58 51°19.426 2°50.689 -999 -999 -999 -999
2007-10-02 05:53:04 51°19.445 2°50.673 -999 -999 -999 -999
2007-10-02 05:53:09 51°19.46 2°50.659 -999 -999 -999 -999
2007-10-02 05:53:14 51°19.476 2°50.646 -999 -999 -999 -999
2007-10-02 05:53:19 51°19.491 2°50.633 -999 -999 -999 -999
2007-10-02 05:53:24 51°19.506 2°50.62 -999 -999 -999 -999
2007-10-02 05:53:29 51°19.521 2°50.606 -999 -999 -999 -999
2007-10-02 05:53:34 51°19.537 2°50.592 -999 -999 -999 -999
2007-10-02 05:53:39 51°19.552 2°50.58 -999 -999 -999 -999
2007-10-02 05:53:44 51°19.567 2°50.566 -999 -999 -999 -999
2007-10-02 05:53:49 51°19.583 2°50.553 -999 -999 -999 -999
2007-10-02 05:53:54 51°19.598 2°50.54 -999 -999 -999 -999
2007-10-02 05:53:58 51°19.611 2°50.529 -999 -999 -999 -999
2007-10-02 05:54:04 51°19.629 2°50.514 -999 -999 -999 -999
2007-10-02 05:54:09 51°19.644 2°50.501 -999 -999 -999 -999
2007-10-02 05:54:14 51°19.66 2°50.487 -999 -999 -999 -999
2007-10-02 05:54:19 51°19.675 2°50.474 -999 -999 -999 -999
2007-10-02 05:54:25 51°19.694 2°50.459 -999 -999 -999 -999
2007-10-02 05:54:29 51°19.707 2°50.448 -999 -999 -999 -999
2007-10-02 05:54:34 51°19.722 2°50.435 -999 -999 -999 -999
2007-10-02 05:54:39 51°19.738 2°50.422 -999 -999 -999 -999
2007-10-02 05:54:44 51°19.754 2°50.409 -999 -999 -999 -999
2007-10-02 05:54:49 51°19.77 2°50.396 -999 -999 -999 -999
2007-10-02 05:54:54 51°19.785 2°50.382 -999 -999 -999 -999
2007-10-02 05:54:59 51°19.801 2°50.369 -999 -999 -999 -999
2007-10-02 05:55:04 51°19.817 2°50.355 -999 -999 -999 -999
2007-10-02 05:55:09 51°19.833 2°50.342 -999 -999 -999 -999
2007-10-02 05:55:14 51°19.848 2°50.329 -999 -999 -999 -999
2007-10-02 05:55:18 51°19.861 2°50.319 -999 -999 -999 -999
2007-10-02 05:55:24 51°19.879 2°50.303 -999 -999 -999 -999
2007-10-02 05:55:29 51°19.895 2°50.289 -999 -999 -999 -999
2007-10-02 05:55:34 51°19.91 2°50.275 -999 -999 -999 -999
2007-10-02 05:55:39 51°19.926 2°50.262 -999 -999 -999 -999
2007-10-02 05:55:44 51°19.942 2°50.248 -999 -999 -999 -999
2007-10-02 05:55:49 51°19.958 2°50.235 -999 -999 -999 -999
2007-10-02 05:55:54 51°19.974 2°50.222 -999 -999 -999 -999
2007-10-02 05:55:59 51°19.99 2°50.209 -999 -999 -999 -999
2007-10-02 05:56:04 51°20.006 2°50.197 -999 -999 -999 -999
2007-10-02 05:56:09 51°20.021 2°50.184 -999 -999 -999 -999
2007-10-02 05:56:14 51°20.037 2°50.171 -999 -999 -999 -999
2007-10-02 05:56:19 51°20.053 2°50.158 -999 -999 -999 -999
2007-10-02 05:56:24 51°20.07 2°50.146 -999 -999 -999 -999
2007-10-02 05:56:29 51°20.085 2°50.132 -999 -999 -999 -999
2007-10-02 05:56:34 51°20.1 2°50.117 -999 -999 -999 -999
2007-10-02 05:56:38 51°20.112 2°50.106 -999 -999 -999 -999
2007-10-02 05:56:44 51°20.13 2°50.088 -999 -999 -999 -999
2007-10-02 05:56:49 51°20.144 2°50.072 -999 -999 -999 -999
2007-10-02 05:56:54 51°20.159 2°50.056 -999 -999 -999 -999
2007-10-02 05:56:58 51°20.17 2°50.043 -999 -999 -999 -999
2007-10-02 05:57:04 51°20.188 2°50.023 -999 -999 -999 -999
2007-10-02 05:57:09 51°20.202 2°50.007 -999 -999 -999 -999
2007-10-02 05:57:14 51°20.217 2°49.991 -999 -999 -999 -999
2007-10-02 05:57:19 51°20.231 2°49.975 -999 -999 -999 -999
2007-10-02 05:57:24 51°20.246 2°49.958 -999 -999 -999 -999
2007-10-02 05:57:29 51°20.26 2°49.942 -999 -999 -999 -999
2007-10-02 05:57:34 51°20.275 2°49.926 -999 -999 -999 -999
2007-10-02 05:57:39 51°20.29 2°49.91 -999 -999 -999 -999
2007-10-02 05:57:44 51°20.304 2°49.894 -999 -999 -999 -999
2007-10-02 05:57:49 51°20.319 2°49.878 -999 -999 -999 -999
2007-10-02 05:57:54 51°20.333 2°49.862 -999 -999 -999 -999
2007-10-02 05:57:59 51°20.348 2°49.845 -999 -999 -999 -999
2007-10-02 05:58:04 51°20.362 2°49.829 -999 -999 -999 -999
2007-10-02 05:58:09 51°20.377 2°49.814 -999 -999 -999 -999
2007-10-02 05:58:14 51°20.392 2°49.798 -999 -999 -999 -999
2007-10-02 05:58:18 51°20.403 2°49.785 -999 -999 -999 -999
2007-10-02 05:58:24 51°20.421 2°49.766 -999 -999 -999 -999
2007-10-02 05:58:29 51°20.436 2°49.75 -999 -999 -999 -999
2007-10-02 05:58:34 51°20.451 2°49.734 -999 -999 -999 -999
2007-10-02 05:58:39 51°20.466 2°49.718 -999 -999 -999 -999
2007-10-02 05:58:44 51°20.481 2°49.703 -999 -999 -999 -999
2007-10-02 05:58:49 51°20.495 2°49.686 -999 -999 -999 -999
2007-10-02 05:58:54 51°20.511 2°49.671 -999 -999 -999 -999
2007-10-02 05:58:59 51°20.525 2°49.655 -999 -999 -999 -999
2007-10-02 05:59:04 51°20.541 2°49.639 -999 -999 -999 -999
2007-10-02 05:59:09 51°20.556 2°49.623 -999 -999 -999 -999
2007-10-02 05:59:14 51°20.571 2°49.608 -999 -999 -999 -999
2007-10-02 05:59:19 51°20.586 2°49.592 -999 -999 -999 -999
2007-10-02 05:59:24 51°20.601 2°49.576 -999 -999 -999 -999
2007-10-02 05:59:29 51°20.616 2°49.561 -999 -999 -999 -999
2007-10-02 05:59:34 51°20.63 2°49.544 -999 -999 -999 -999
2007-10-02 05:59:38 51°20.642 2°49.531 -999 -999 -999 -999
2007-10-02 05:59:44 51°20.66 2°49.512 -999 -999 -999 -999
2007-10-02 05:59:49 51°20.674 2°49.496 -999 -999 -999 -999
2007-10-02 05:59:54 51°20.689 2°49.479 -999 -999 -999 -999
2007-10-02 05:59:58 51°20.7 2°49.465 -999 -999 -999 -999
2007-10-02 06:00:04 51°20.717 2°49.446 -999 -999 -999 -999
2007-10-02 06:00:09 51°20.731 2°49.429 -999 -999 -999 -999
2007-10-02 06:00:14 51°20.746 2°49.414 -999 -999 -999 -999
2007-10-02 06:00:19 51°20.76 2°49.398 -999 -999 -999 -999
2007-10-02 06:00:24 51°20.774 2°49.383 -999 -999 -999 -999
2007-10-02 06:00:29 51°20.787 2°49.367 -999 -999 -999 -999
2007-10-02 06:00:34 51°20.801 2°49.352 -999 -999 -999 -999
2007-10-02 06:00:39 51°20.815 2°49.337 -999 -999 -999 -999
2007-10-02 06:00:44 51°20.828 2°49.322 -999 -999 -999 -999
2007-10-02 06:00:49 51°20.842 2°49.307 -999 -999 -999 -999
2007-10-02 06:00:54 51°20.855 2°49.292 -999 -999 -999 -999
2007-10-02 06:00:59 51°20.869 2°49.277 -999 -999 -999 -999
2007-10-02 06:01:04 51°20.882 2°49.263 -999 -999 -999 -999
2007-10-02 06:01:09 51°20.896 2°49.248 -999 -999 -999 -999
2007-10-02 06:01:14 51°20.909 2°49.233 -999 -999 -999 -999
2007-10-02 06:01:19 51°20.922 2°49.218 -999 -999 -999 -999
2007-10-02 06:01:24 51°20.936 2°49.204 -999 -999 -999 -999
2007-10-02 06:01:29 51°20.949 2°49.189 -999 -999 -999 -999
2007-10-02 06:01:34 51°20.962 2°49.173 -999 -999 -999 -999
2007-10-02 06:01:39 51°20.975 2°49.158 -999 -999 -999 -999
2007-10-02 06:01:44 51°20.987 2°49.143 -999 -999 -999 -999
2007-10-02 06:01:49 51°20.998 2°49.127 -999 -999 -999 -999
2007-10-02 06:01:54 51°21.01 2°49.112 -999 -999 -999 -999
2007-10-02 06:01:59 51°21.021 2°49.095 -999 -999 -999 -999
2007-10-02 06:02:04 51°21.032 2°49.079 -999 -999 -999 -999
2007-10-02 06:02:09 51°21.043 2°49.062 -999 -999 -999 -999
2007-10-02 06:02:14 51°21.053 2°49.045 -999 -999 -999 -999
2007-10-02 06:02:19 51°21.064 2°49.028 -999 -999 -999 -999
2007-10-02 06:02:24 51°21.074 2°49.01 -999 -999 -999 -999
2007-10-02 06:02:29 51°21.084 2°48.993 -999 -999 -999 -999
2007-10-02 06:02:34 51°21.095 2°48.975 -999 -999 -999 -999
2007-10-02 06:02:39 51°21.105 2°48.958 -999 -999 -999 -999
2007-10-02 06:02:44 51°21.116 2°48.941 -999 -999 -999 -999
2007-10-02 06:02:49 51°21.127 2°48.925 -999 -999 -999 -999
2007-10-02 06:02:54 51°21.137 2°48.907 -999 -999 -999 -999
2007-10-02 06:02:59 51°21.149 2°48.89 -999 -999 -999 -999
2007-10-02 06:03:04 51°21.159 2°48.872 -999 -999 -999 -999
2007-10-02 06:03:09 51°21.171 2°48.855 -999 -999 -999 -999
2007-10-02 06:03:14 51°21.182 2°48.836 -999 -999 -999 -999
2007-10-02 06:03:19 51°21.193 2°48.818 -999 -999 -999 -999
2007-10-02 06:03:24 51°21.204 2°48.799 -999 -999 -999 -999
2007-10-02 06:03:29 51°21.216 2°48.78 -999 -999 -999 -999
2007-10-02 06:03:34 51°21.227 2°48.761 -999 -999 -999 -999
2007-10-02 06:03:39 51°21.239 2°48.742 -999 -999 -999 -999
2007-10-02 06:03:44 51°21.25 2°48.723 -999 -999 -999 -999
2007-10-02 06:03:49 51°21.262 2°48.704 -999 -999 -999 -999
2007-10-02 06:03:54 51°21.274 2°48.684 -999 -999 -999 -999
2007-10-02 06:03:59 51°21.286 2°48.665 -999 -999 -999 -999
2007-10-02 06:04:04 51°21.297 2°48.645 -999 -999 -999 -999
2007-10-02 06:04:09 51°21.31 2°48.627 -999 -999 -999 -999
2007-10-02 06:04:14 51°21.321 2°48.606 -999 -999 -999 -999
2007-10-02 06:04:19 51°21.334 2°48.588 -999 -999 -999 -999
2007-10-02 06:04:24 51°21.345 2°48.568 -999 -999 -999 -999
2007-10-02 06:04:29 51°21.358 2°48.549 -999 -999 -999 -999
2007-10-02 06:04:34 51°21.37 2°48.53 -999 -999 -999 -999
2007-10-02 06:04:38 51°21.379 2°48.514 -999 -999 -999 -999
2007-10-02 06:04:44 51°21.393 2°48.491 -999 -999 -999 -999
2007-10-02 06:04:49 51°21.405 2°48.471 -999 -999 -999 -999
2007-10-02 06:04:54 51°21.417 2°48.452 -999 -999 -999 -999
2007-10-02 06:04:58 51°21.426 2°48.436 -999 -999 -999 -999
2007-10-02 06:05:04 51°21.44 2°48.413 -999 -999 -999 -999
2007-10-02 06:05:09 51°21.452 2°48.394 -999 -999 -999 -999
2007-10-02 06:05:14 51°21.464 2°48.375 -999 -999 -999 -999
2007-10-02 06:05:19 51°21.476 2°48.355 -999 -999 -999 -999
2007-10-02 06:05:24 51°21.489 2°48.336 -999 -999 -999 -999
2007-10-02 06:05:29 51°21.501 2°48.317 -999 -999 -999 -999
2007-10-02 06:05:34 51°21.513 2°48.3 -999 -999 -999 -999
2007-10-02 06:05:39 51°21.525 2°48.28 -999 -999 -999 -999
2007-10-02 06:05:44 51°21.538 2°48.262 -999 -999 -999 -999
2007-10-02 06:05:49 51°21.549 2°48.243 -999 -999 -999 -999
2007-10-02 06:05:54 51°21.562 2°48.224 -999 -999 -999 -999
2007-10-02 06:05:59 51°21.575 2°48.207 -999 -999 -999 -999
2007-10-02 06:06:04 51°21.588 2°48.188 -999 -999 -999 -999
2007-10-02 06:06:09 51°21.602 2°48.172 -999 -999 -999 -999
2007-10-02 06:06:14 51°21.615 2°48.155 -999 -999 -999 -999
2007-10-02 06:06:18 51°21.627 2°48.142 -999 -999 -999 -999
2007-10-02 06:06:24 51°21.644 2°48.122 -999 -999 -999 -999
2007-10-02 06:06:29 51°21.658 2°48.107 -999 -999 -999 -999
2007-10-02 06:06:34 51°21.673 2°48.093 -999 -999 -999 -999
2007-10-02 06:06:39 51°21.688 2°48.079 -999 -999 -999 -999
2007-10-02 06:06:44 51°21.704 2°48.065 -999 -999 -999 -999
2007-10-02 06:06:49 51°21.719 2°48.051 -999 -999 -999 -999
2007-10-02 06:06:54 51°21.734 2°48.038 -999 -999 -999 -999
2007-10-02 06:06:59 51°21.749 2°48.024 -999 -999 -999 -999
2007-10-02 06:07:04 51°21.765 2°48.01 -999 -999 -999 -999
2007-10-02 06:07:09 51°21.78 2°47.997 -999 -999 -999 -999
2007-10-02 06:07:14 51°21.795 2°47.984 -999 -999 -999 -999
2007-10-02 06:07:19 51°21.811 2°47.971 -999 -999 -999 -999
2007-10-02 06:07:24 51°21.826 2°47.958 -999 -999 -999 -999
2007-10-02 06:07:29 51°21.842 2°47.944 -999 -999 -999 -999
2007-10-02 06:07:34 51°21.857 2°47.93 -999 -999 -999 -999
2007-10-02 06:07:38 51°21.869 2°47.921 -999 -999 -999 -999
2007-10-02 06:07:44 51°21.888 2°47.904 -999 -999 -999 -999
2007-10-02 06:07:49 51°21.903 2°47.892 -999 -999 -999 -999
2007-10-02 06:07:54 51°21.918 2°47.88 -999 -999 -999 -999
2007-10-02 06:07:58 51°21.93 2°47.87 -999 -999 -999 -999
2007-10-02 06:08:04 51°21.949 2°47.856 -999 -999 -999 -999
2007-10-02 06:08:09 51°21.965 2°47.843 -999 -999 -999 -999
2007-10-02 06:08:14 51°21.981 2°47.832 -999 -999 -999 -999
2007-10-02 06:08:19 51°21.996 2°47.82 -999 -999 -999 -999
2007-10-02 06:08:25 51°22.015 2°47.806 -999 -999 -999 -999
2007-10-02 06:08:29 51°22.028 2°47.797 -999 -999 -999 -999
2007-10-02 06:08:34 51°22.043 2°47.786 -999 -999 -999 -999
2007-10-02 06:08:39 51°22.059 2°47.774 -999 -999 -999 -999
2007-10-02 06:08:44 51°22.076 2°47.762 -999 -999 -999 -999
2007-10-02 06:08:49 51°22.091 2°47.75 -999 -999 -999 -999
2007-10-02 06:08:54 51°22.107 2°47.739 -999 -999 -999 -999
2007-10-02 06:08:59 51°22.124 2°47.727 -999 -999 -999 -999
2007-10-02 06:09:04 51°22.14 2°47.716 -999 -999 -999 -999
2007-10-02 06:09:09 51°22.156 2°47.704 -999 -999 -999 -999
2007-10-02 06:09:14 51°22.172 2°47.692 -999 -999 -999 -999
2007-10-02 06:09:19 51°22.188 2°47.681 -999 -999 -999 -999
2007-10-02 06:09:24 51°22.204 2°47.668 -999 -999 -999 -999
2007-10-02 06:09:29 51°22.22 2°47.656 -999 -999 -999 -999
2007-10-02 06:09:34 51°22.236 2°47.644 -999 -999 -999 -999
2007-10-02 06:09:39 51°22.252 2°47.632 -999 -999 -999 -999
2007-10-02 06:09:44 51°22.268 2°47.62 -999 -999 -999 -999
2007-10-02 06:09:49 51°22.284 2°47.608 -999 -999 -999 -999
2007-10-02 06:09:54 51°22.3 2°47.596 -999 -999 -999 -999
2007-10-02 06:09:59 51°22.316 2°47.585 -999 -999 -999 -999
2007-10-02 06:10:04 51°22.332 2°47.574 -999 -999 -999 -999
2007-10-02 06:10:09 51°22.349 2°47.563 -999 -999 -999 -999
2007-10-02 06:10:14 51°22.365 2°47.551 -999 -999 -999 -999
2007-10-02 06:10:19 51°22.381 2°47.54 -999 -999 -999 -999
2007-10-02 06:10:25 51°22.401 2°47.527 -999 -999 -999 -999
2007-10-02 06:10:29 51°22.414 2°47.517 -999 -999 -999 -999
2007-10-02 06:10:34 51°22.43 2°47.505 -999 -999 -999 -999
2007-10-02 06:10:39 51°22.446 2°47.493 -999 -999 -999 -999
2007-10-02 06:10:45 51°22.466 2°47.479 -999 -999 -999 -999
2007-10-02 06:10:49 51°22.479 2°47.469 -999 -999 -999 -999
2007-10-02 06:10:54 51°22.496 2°47.458 -999 -999 -999 -999
2007-10-02 06:10:59 51°22.512 2°47.446 -999 -999 -999 -999
2007-10-02 06:11:04 51°22.528 2°47.433 -999 -999 -999 -999
2007-10-02 06:11:09 51°22.545 2°47.422 -999 -999 -999 -999
2007-10-02 06:11:14 51°22.561 2°47.41 -999 -999 -999 -999
2007-10-02 06:11:19 51°22.578 2°47.398 -999 -999 -999 -999
2007-10-02 06:11:24 51°22.594 2°47.387 -999 -999 -999 -999
2007-10-02 06:11:29 51°22.611 2°47.374 -999 -999 -999 -999
2007-10-02 06:11:34 51°22.627 2°47.362 -999 -999 -999 -999
2007-10-02 06:11:38 51°22.64 2°47.352 -999 -999 -999 -999
2007-10-02 06:11:44 51°22.659 2°47.338 -999 -999 -999 -999
2007-10-02 06:11:49 51°22.676 2°47.326 -999 -999 -999 -999
2007-10-02 06:11:54 51°22.692 2°47.315 -999 -999 -999 -999
2007-10-02 06:11:58 51°22.706 2°47.305 -999 -999 -999 -999
2007-10-02 06:12:04 51°22.725 2°47.291 -999 -999 -999 -999
2007-10-02 06:12:09 51°22.742 2°47.279 -999 -999 -999 -999
2007-10-02 06:12:14 51°22.758 2°47.267 -999 -999 -999 -999
2007-10-02 06:12:19 51°22.775 2°47.254 -999 -999 -999 -999
2007-10-02 06:12:25 51°22.794 2°47.239 -999 -999 -999 -999
2007-10-02 06:12:29 51°22.806 2°47.229 -999 -999 -999 -999
2007-10-02 06:12:34 51°22.823 2°47.217 -999 -999 -999 -999
2007-10-02 06:12:39 51°22.839 2°47.204 -999 -999 -999 -999
2007-10-02 06:12:44 51°22.855 2°47.192 -999 -999 -999 -999
2007-10-02 06:12:49 51°22.871 2°47.18 -999 -999 -999 -999
2007-10-02 06:12:54 51°22.887 2°47.167 -999 -999 -999 -999
2007-10-02 06:12:59 51°22.904 2°47.155 -999 -999 -999 -999
2007-10-02 06:13:04 51°22.92 2°47.143 -999 -999 -999 -999
2007-10-02 06:13:09 51°22.936 2°47.131 -999 -999 -999 -999
2007-10-02 06:13:14 51°22.952 2°47.119 -999 -999 -999 -999
2007-10-02 06:13:18 51°22.965 2°47.109 -999 -999 -999 -999
2007-10-02 06:13:24 51°22.984 2°47.093 -999 -999 -999 -999
2007-10-02 06:13:29 51°23 2°47.081 -999 -999 -999 -999
2007-10-02 06:13:34 51°23.016 2°47.069 -999 -999 -999 -999
2007-10-02 06:13:39 51°23.032 2°47.056 -999 -999 -999 -999
2007-10-02 06:13:44 51°23.048 2°47.044 -999 -999 -999 -999
2007-10-02 06:13:49 51°23.064 2°47.031 -999 -999 -999 -999
2007-10-02 06:13:54 51°23.081 2°47.02 -999 -999 -999 -999
2007-10-02 06:13:59 51°23.096 2°47.008 -999 -999 -999 -999
2007-10-02 06:14:04 51°23.112 2°46.996 -999 -999 -999 -999
2007-10-02 06:14:09 51°23.129 2°46.984 -999 -999 -999 -999
2007-10-02 06:14:14 51°23.145 2°46.973 -999 -999 -999 -999
2007-10-02 06:14:19 51°23.161 2°46.961 -999 -999 -999 -999
2007-10-02 06:14:24 51°23.177 2°46.951 -999 -999 -999 -999
2007-10-02 06:14:29 51°23.194 2°46.939 -999 -999 -999 -999
2007-10-02 06:14:34 51°23.21 2°46.929 -999 -999 -999 -999
2007-10-02 06:14:38 51°23.223 2°46.919 -999 -999 -999 -999
2007-10-02 06:14:44 51°23.243 2°46.906 -999 -999 -999 -999
2007-10-02 06:14:49 51°23.259 2°46.895 -999 -999 -999 -999
2007-10-02 06:14:54 51°23.275 2°46.883 -999 -999 -999 -999
2007-10-02 06:14:58 51°23.288 2°46.874 -999 -999 -999 -999
2007-10-02 06:15:04 51°23.308 2°46.86 -999 -999 -999 -999
2007-10-02 06:15:09 51°23.324 2°46.848 -999 -999 -999 -999
2007-10-02 06:15:14 51°23.341 2°46.837 -999 -999 -999 -999
2007-10-02 06:15:19 51°23.357 2°46.826 -999 -999 -999 -999
2007-10-02 06:15:24 51°23.373 2°46.815 -999 -999 -999 -999
2007-10-02 06:15:29 51°23.39 2°46.804 -999 -999 -999 -999
2007-10-02 06:15:34 51°23.406 2°46.793 -999 -999 -999 -999
2007-10-02 06:15:39 51°23.422 2°46.782 -999 -999 -999 -999
2007-10-02 06:15:44 51°23.438 2°46.772 -999 -999 -999 -999
2007-10-02 06:15:49 51°23.454 2°46.76 -999 -999 -999 -999
2007-10-02 06:15:54 51°23.471 2°46.749 -999 -999 -999 -999
2007-10-02 06:15:59 51°23.487 2°46.739 -999 -999 -999 -999
2007-10-02 06:16:04 51°23.504 2°46.728 -999 -999 -999 -999
2007-10-02 06:16:09 51°23.52 2°46.718 -999 -999 -999 -999
2007-10-02 06:16:14 51°23.537 2°46.707 -999 -999 -999 -999
2007-10-02 06:16:18 51°23.551 2°46.699 -999 -999 -999 -999
2007-10-02 06:16:24 51°23.571 2°46.688 -999 -999 -999 -999
2007-10-02 06:16:29 51°23.588 2°46.679 -999 -999 -999 -999
2007-10-02 06:16:34 51°23.605 2°46.67 -999 -999 -999 -999
2007-10-02 06:16:39 51°23.622 2°46.662 -999 -999 -999 -999
2007-10-02 06:16:44 51°23.639 2°46.654 -999 -999 -999 -999
2007-10-02 06:16:49 51°23.657 2°46.646 -999 -999 -999 -999
2007-10-02 06:16:54 51°23.674 2°46.639 -999 -999 -999 -999
2007-10-02 06:16:59 51°23.691 2°46.632 -999 -999 -999 -999
2007-10-02 06:17:04 51°23.708 2°46.625 -999 -999 -999 -999
2007-10-02 06:17:09 51°23.726 2°46.619 -999 -999 -999 -999
2007-10-02 06:17:14 51°23.743 2°46.611 -999 -999 -999 -999
2007-10-02 06:17:18 51°23.757 2°46.605 -999 -999 -999 -999
2007-10-02 06:17:24 51°23.777 2°46.596 -999 -999 -999 -999
2007-10-02 06:17:29 51°23.794 2°46.587 -999 -999 -999 -999
2007-10-02 06:17:34 51°23.811 2°46.579 -999 -999 -999 -999
2007-10-02 06:17:39 51°23.828 2°46.571 -999 -999 -999 -999
2007-10-02 06:17:44 51°23.845 2°46.561 -999 -999 -999 -999
2007-10-02 06:17:49 51°23.862 2°46.554 -999 -999 -999 -999
2007-10-02 06:17:54 51°23.879 2°46.545 -999 -999 -999 -999
2007-10-02 06:17:59 51°23.896 2°46.537 -999 -999 -999 -999
2007-10-02 06:18:04 51°23.913 2°46.529 -999 -999 -999 -999
2007-10-02 06:18:09 51°23.93 2°46.52 -999 -999 -999 -999
2007-10-02 06:18:14 51°23.947 2°46.512 -999 -999 -999 -999
2007-10-02 06:18:18 51°23.96 2°46.505 -999 -999 -999 -999
2007-10-02 06:18:24 51°23.981 2°46.495 -999 -999 -999 -999
2007-10-02 06:18:29 51°23.997 2°46.487 -999 -999 -999 -999
2007-10-02 06:18:34 51°24.014 2°46.479 -999 -999 -999 -999
2007-10-02 06:18:39 51°24.03 2°46.47 -999 -999 -999 -999
2007-10-02 06:18:44 51°24.047 2°46.461 -999 -999 -999 -999
2007-10-02 06:18:49 51°24.063 2°46.453 -999 -999 -999 -999
2007-10-02 06:18:54 51°24.08 2°46.445 -999 -999 -999 -999
2007-10-02 06:18:59 51°24.096 2°46.437 -999 -999 -999 -999
2007-10-02 06:19:04 51°24.114 2°46.429 -999 -999 -999 -999
2007-10-02 06:19:09 51°24.13 2°46.42 -999 -999 -999 -999
2007-10-02 06:19:14 51°24.147 2°46.41 -999 -999 -999 -999
2007-10-02 06:19:18 51°24.16 2°46.403 -999 -999 -999 -999
2007-10-02 06:19:24 51°24.18 2°46.392 -999 -999 -999 -999
2007-10-02 06:19:29 51°24.197 2°46.383 -999 -999 -999 -999
2007-10-02 06:19:34 51°24.214 2°46.374 -999 -999 -999 -999
2007-10-02 06:19:38 51°24.227 2°46.367 -999 -999 -999 -999
2007-10-02 06:19:44 51°24.247 2°46.356 -999 -999 -999 -999
2007-10-02 06:19:49 51°24.264 2°46.346 -999 -999 -999 -999
2007-10-02 06:19:54 51°24.281 2°46.337 -999 -999 -999 -999
2007-10-02 06:19:59 51°24.297 2°46.328 -999 -999 -999 -999
2007-10-02 06:20:04 51°24.314 2°46.318 -999 -999 -999 -999
2007-10-02 06:20:09 51°24.33 2°46.308 -999 -999 -999 -999
2007-10-02 06:20:14 51°24.348 2°46.299 -999 -999 -999 -999
2007-10-02 06:20:18 51°24.361 2°46.292 -999 -999 -999 -999
2007-10-02 06:20:24 51°24.381 2°46.28 -999 -999 -999 -999
2007-10-02 06:20:29 51°24.398 2°46.271 -999 -999 -999 -999
2007-10-02 06:20:34 51°24.415 2°46.261 -999 -999 -999 -999
2007-10-02 06:20:38 51°24.428 2°46.254 -999 -999 -999 -999
2007-10-02 06:20:44 51°24.448 2°46.242 -999 -999 -999 -999
2007-10-02 06:20:49 51°24.465 2°46.232 -999 -999 -999 -999
2007-10-02 06:20:54 51°24.481 2°46.222 -999 -999 -999 -999
2007-10-02 06:20:59 51°24.498 2°46.213 -999 -999 -999 -999
2007-10-02 06:21:04 51°24.514 2°46.203 -999 -999 -999 -999
2007-10-02 06:21:09 51°24.531 2°46.194 -999 -999 -999 -999
2007-10-02 06:21:14 51°24.548 2°46.185 -999 -999 -999 -999
2007-10-02 06:21:18 51°24.562 2°46.177 -999 -999 -999 -999
2007-10-02 06:21:24 51°24.582 2°46.166 -999 -999 -999 -999
2007-10-02 06:21:29 51°24.599 2°46.158 -999 -999 -999 -999
2007-10-02 06:21:34 51°24.615 2°46.147 -999 -999 -999 -999
2007-10-02 06:21:38 51°24.629 2°46.14 -999 -999 -999 -999
2007-10-02 06:21:44 51°24.649 2°46.128 -999 -999 -999 -999
2007-10-02 06:21:49 51°24.666 2°46.119 -999 -999 -999 -999
2007-10-02 06:21:54 51°24.683 2°46.109 -999 -999 -999 -999
2007-10-02 06:21:59 51°24.699 2°46.1 -999 -999 -999 -999
2007-10-02 06:22:05 51°24.719 2°46.089 -999 -999 -999 -999
2007-10-02 06:22:09 51°24.733 2°46.082 -999 -999 -999 -999
2007-10-02 06:22:14 51°24.749 2°46.072 -999 -999 -999 -999
2007-10-02 06:22:19 51°24.766 2°46.063 -999 -999 -999 -999
2007-10-02 06:22:24 51°24.783 2°46.053 -999 -999 -999 -999
2007-10-02 06:22:29 51°24.8 2°46.044 -999 -999 -999 -999
2007-10-02 06:22:34 51°24.817 2°46.035 -999 -999 -999 -999
2007-10-02 06:22:39 51°24.833 2°46.026 -999 -999 -999 -999
2007-10-02 06:22:44 51°24.85 2°46.016 -999 -999 -999 -999
2007-10-02 06:22:49 51°24.867 2°46.006 -999 -999 -999 -999
2007-10-02 06:22:54 51°24.884 2°45.997 -999 -999 -999 -999
2007-10-02 06:22:58 51°24.897 2°45.989 -999 -999 -999 -999
2007-10-02 06:23:04 51°24.918 2°45.978 -999 -999 -999 -999
2007-10-02 06:23:09 51°24.934 2°45.968 -999 -999 -999 -999
2007-10-02 06:23:14 51°24.952 2°45.959 -999 -999 -999 -999
2007-10-02 06:23:19 51°24.968 2°45.949 -999 -999 -999 -999
2007-10-02 06:23:24 51°24.985 2°45.94 -999 -999 -999 -999
2007-10-02 06:23:29 51°25.003 2°45.93 -999 -999 -999 -999
2007-10-02 06:23:34 51°25.02 2°45.921 -999 -999 -999 -999
2007-10-02 06:23:39 51°25.036 2°45.91 -999 -999 -999 -999
2007-10-02 06:23:44 51°25.053 2°45.901 -999 -999 -999 -999
2007-10-02 06:23:49 51°25.07 2°45.891 -999 -999 -999 -999
2007-10-02 06:23:54 51°25.086 2°45.881 -999 -999 -999 -999
2007-10-02 06:23:58 51°25.1 2°45.873 -999 -999 -999 -999
2007-10-02 06:24:04 51°25.12 2°45.861 -999 -999 -999 -999
2007-10-02 06:24:09 51°25.137 2°45.851 -999 -999 -999 -999
2007-10-02 06:24:14 51°25.154 2°45.841 -999 -999 -999 -999
2007-10-02 06:24:19 51°25.171 2°45.831 -999 -999 -999 -999
2007-10-02 06:24:25 51°25.191 2°45.82 -999 -999 -999 -999
2007-10-02 06:24:29 51°25.205 2°45.813 -999 -999 -999 -999
2007-10-02 06:24:34 51°25.222 2°45.803 -999 -999 -999 -999
2007-10-02 06:24:39 51°25.239 2°45.794 -999 -999 -999 -999
2007-10-02 06:24:44 51°25.256 2°45.784 -999 -999 -999 -999
2007-10-02 06:24:49 51°25.272 2°45.775 -999 -999 -999 -999
2007-10-02 06:24:54 51°25.289 2°45.765 -999 -999 -999 -999
2007-10-02 06:24:59 51°25.306 2°45.756 -999 -999 -999 -999
2007-10-02 06:25:04 51°25.323 2°45.746 -999 -999 -999 -999
2007-10-02 06:25:09 51°25.34 2°45.736 -999 -999 -999 -999
2007-10-02 06:25:14 51°25.357 2°45.725 -999 -999 -999 -999
2007-10-02 06:25:18 51°25.37 2°45.717 -999 -999 -999 -999
2007-10-02 06:25:24 51°25.39 2°45.704 -999 -999 -999 -999
2007-10-02 06:25:29 51°25.407 2°45.695 -999 -999 -999 -999
2007-10-02 06:25:34 51°25.424 2°45.684 -999 -999 -999 -999
2007-10-02 06:25:39 51°25.441 2°45.675 -999 -999 -999 -999
2007-10-02 06:25:44 51°25.458 2°45.665 -999 -999 -999 -999
2007-10-02 06:25:49 51°25.475 2°45.655 -999 -999 -999 -999
2007-10-02 06:25:54 51°25.492 2°45.645 -999 -999 -999 -999
2007-10-02 06:25:59 51°25.509 2°45.636 -999 -999 -999 -999
2007-10-02 06:26:04 51°25.526 2°45.626 -999 -999 -999 -999
2007-10-02 06:26:09 51°25.543 2°45.617 -999 -999 -999 -999
2007-10-02 06:26:14 51°25.56 2°45.607 -999 -999 -999 -999
2007-10-02 06:26:18 51°25.573 2°45.599 -999 -999 -999 -999
2007-10-02 06:26:24 51°25.593 2°45.587 -999 -999 -999 -999
2007-10-02 06:26:29 51°25.61 2°45.577 -999 -999 -999 -999
2007-10-02 06:26:34 51°25.627 2°45.567 -999 -999 -999 -999
2007-10-02 06:26:39 51°25.644 2°45.557 -999 -999 -999 -999
2007-10-02 06:26:44 51°25.661 2°45.547 -999 -999 -999 -999
2007-10-02 06:26:49 51°25.677 2°45.538 -999 -999 -999 -999
2007-10-02 06:26:54 51°25.695 2°45.528 -999 -999 -999 -999
2007-10-02 06:26:59 51°25.712 2°45.518 -999 -999 -999 -999
2007-10-02 06:27:04 51°25.729 2°45.509 -999 -999 -999 -999
2007-10-02 06:27:09 51°25.746 2°45.499 -999 -999 -999 -999
2007-10-02 06:27:14 51°25.763 2°45.489 -999 -999 -999 -999
2007-10-02 06:27:18 51°25.776 2°45.481 -999 -999 -999 -999
2007-10-02 06:27:24 51°25.797 2°45.469 -999 -999 -999 -999
2007-10-02 06:27:29 51°25.814 2°45.46 -999 -999 -999 -999
2007-10-02 06:27:34 51°25.831 2°45.45 -999 -999 -999 -999
2007-10-02 06:27:39 51°25.848 2°45.44 -999 -999 -999 -999
2007-10-02 06:27:44 51°25.865 2°45.43 -999 -999 -999 -999
2007-10-02 06:27:49 51°25.882 2°45.419 -999 -999 -999 -999
2007-10-02 06:27:54 51°25.899 2°45.41 -999 -999 -999 -999
2007-10-02 06:27:59 51°25.916 2°45.4 -999 -999 -999 -999
2007-10-02 06:28:04 51°25.933 2°45.39 -999 -999 -999 -999
2007-10-02 06:28:09 51°25.95 2°45.38 -999 -999 -999 -999
2007-10-02 06:28:14 51°25.967 2°45.369 -999 -999 -999 -999
2007-10-02 06:28:19 51°25.985 2°45.36 -999 -999 -999 -999
2007-10-02 06:28:24 51°26.001 2°45.349 -999 -999 -999 -999
2007-10-02 06:28:29 51°26.019 2°45.34 -999 -999 -999 -999
2007-10-02 06:28:34 51°26.035 2°45.329 -999 -999 -999 -999
2007-10-02 06:28:38 51°26.049 2°45.321 -999 -999 -999 -999
2007-10-02 06:28:44 51°26.069 2°45.308 -999 -999 -999 -999
2007-10-02 06:28:49 51°26.086 2°45.298 -999 -999 -999 -999
2007-10-02 06:28:54 51°26.103 2°45.288 -999 -999 -999 -999
2007-10-02 06:28:59 51°26.119 2°45.278 -999 -999 -999 -999
2007-10-02 06:29:04 51°26.136 2°45.268 -999 -999 -999 -999
2007-10-02 06:29:09 51°26.153 2°45.258 -999 -999 -999 -999
2007-10-02 06:29:14 51°26.17 2°45.247 -999 -999 -999 -999
2007-10-02 06:29:19 51°26.187 2°45.238 -999 -999 -999 -999
2007-10-02 06:29:24 51°26.204 2°45.227 -999 -999 -999 -999
2007-10-02 06:29:29 51°26.221 2°45.217 -999 -999 -999 -999
2007-10-02 06:29:34 51°26.238 2°45.208 -999 -999 -999 -999
2007-10-02 06:29:39 51°26.255 2°45.198 -999 -999 -999 -999
2007-10-02 06:29:44 51°26.271 2°45.188 -999 -999 -999 -999
2007-10-02 06:29:49 51°26.289 2°45.178 -999 -999 -999 -999
2007-10-02 06:29:54 51°26.306 2°45.168 -999 -999 -999 -999
2007-10-02 06:29:58 51°26.319 2°45.16 -999 -999 -999 -999
2007-10-02 06:30:04 51°26.339 2°45.148 -999 -999 -999 -999
2007-10-02 06:30:09 51°26.355 2°45.138 -999 -999 -999 -999
2007-10-02 06:30:14 51°26.372 2°45.128 -999 -999 -999 -999
2007-10-02 06:30:18 51°26.385 2°45.12 -999 -999 -999 -999
2007-10-02 06:30:24 51°26.404 2°45.108 -999 -999 -999 -999
2007-10-02 06:30:29 51°26.421 2°45.099 -999 -999 -999 -999
2007-10-02 06:30:34 51°26.437 2°45.089 -999 -999 -999 -999
2007-10-02 06:30:39 51°26.454 2°45.079 -999 -999 -999 -999
2007-10-02 06:30:45 51°26.474 2°45.068 -999 -999 -999 -999
2007-10-02 06:30:49 51°26.487 2°45.059 -999 -999 -999 -999
2007-10-02 06:30:54 51°26.503 2°45.049 -999 -999 -999 -999
2007-10-02 06:30:59 51°26.52 2°45.039 -999 -999 -999 -999
2007-10-02 06:31:04 51°26.536 2°45.029 -999 -999 -999 -999
2007-10-02 06:31:09 51°26.552 2°45.018 -999 -999 -999 -999
2007-10-02 06:31:14 51°26.568 2°45.008 -999 -999 -999 -999
2007-10-02 06:31:18 51°26.582 2°45.001 -999 -999 -999 -999
2007-10-02 06:31:24 51°26.602 2°44.989 -999 -999 -999 -999
2007-10-02 06:31:29 51°26.619 2°44.979 -999 -999 -999 -999
2007-10-02 06:31:34 51°26.636 2°44.969 -999 -999 -999 -999
2007-10-02 06:31:39 51°26.652 2°44.958 -999 -999 -999 -999
2007-10-02 06:31:44 51°26.669 2°44.949 -999 -999 -999 -999
2007-10-02 06:31:49 51°26.686 2°44.94 -999 -999 -999 -999
2007-10-02 06:31:54 51°26.702 2°44.93 -999 -999 -999 -999
2007-10-02 06:31:59 51°26.719 2°44.921 -999 -999 -999 -999
2007-10-02 06:32:04 51°26.736 2°44.911 -999 -999 -999 -999
2007-10-02 06:32:09 51°26.753 2°44.902 -999 -999 -999 -999
2007-10-02 06:32:14 51°26.769 2°44.892 -999 -999 -999 -999
2007-10-02 06:32:18 51°26.783 2°44.885 -999 -999 -999 -999
2007-10-02 06:32:24 51°26.803 2°44.874 -999 -999 -999 -999
2007-10-02 06:32:29 51°26.82 2°44.864 -999 -999 -999 -999
2007-10-02 06:32:34 51°26.836 2°44.855 -999 -999 -999 -999
2007-10-02 06:32:39 51°26.853 2°44.844 -999 -999 -999 -999
2007-10-02 06:32:45 51°26.873 2°44.834 -999 -999 -999 -999
2007-10-02 06:32:49 51°26.887 2°44.826 -999 -999 -999 -999
2007-10-02 06:32:54 51°26.903 2°44.817 -999 -999 -999 -999
2007-10-02 06:32:59 51°26.92 2°44.808 -999 -999 -999 -999
2007-10-02 06:33:04 51°26.936 2°44.799 -999 -999 -999 -999
2007-10-02 06:33:09 51°26.953 2°44.789 -999 -999 -999 -999
2007-10-02 06:33:14 51°26.97 2°44.78 -999 -999 -999 -999
2007-10-02 06:33:19 51°26.987 2°44.77 -999 -999 -999 -999
2007-10-02 06:33:25 51°27.006 2°44.759 -999 -999 -999 -999
2007-10-02 06:33:29 51°27.019 2°44.751 -999 -999 -999 -999
2007-10-02 06:33:34 51°27.035 2°44.741 -999 -999 -999 -999
2007-10-02 06:33:39 51°27.052 2°44.733 -999 -999 -999 -999
2007-10-02 06:33:44 51°27.068 2°44.722 -999 -999 -999 -999
2007-10-02 06:33:49 51°27.085 2°44.713 -999 -999 -999 -999
2007-10-02 06:33:54 51°27.102 2°44.703 -999 -999 -999 -999
2007-10-02 06:33:58 51°27.115 2°44.696 -999 -999 -999 -999
2007-10-02 06:34:04 51°27.135 2°44.684 -999 -999 -999 -999
2007-10-02 06:34:09 51°27.152 2°44.676 -999 -999 -999 -999
2007-10-02 06:34:14 51°27.169 2°44.665 -999 -999 -999 -999
2007-10-02 06:34:19 51°27.186 2°44.656 -999 -999 -999 -999
2007-10-02 06:34:24 51°27.202 2°44.646 -999 -999 -999 -999
2007-10-02 06:34:29 51°27.219 2°44.637 -999 -999 -999 -999
2007-10-02 06:34:34 51°27.236 2°44.627 -999 -999 -999 -999
2007-10-02 06:34:39 51°27.252 2°44.618 -999 -999 -999 -999
2007-10-02 06:34:44 51°27.269 2°44.609 -999 -999 -999 -999
2007-10-02 06:34:49 51°27.287 2°44.6 -999 -999 -999 -999
2007-10-02 06:34:54 51°27.303 2°44.591 -999 -999 -999 -999
2007-10-02 06:34:59 51°27.32 2°44.582 -999 -999 -999 -999
2007-10-02 06:35:04 51°27.337 2°44.573 -999 -999 -999 -999
2007-10-02 06:35:09 51°27.354 2°44.563 -999 -999 -999 -999
2007-10-02 06:35:14 51°27.371 2°44.553 -999 -999 -999 -999
2007-10-02 06:35:19 51°27.387 2°44.545 -999 -999 -999 -999
2007-10-02 06:35:24 51°27.404 2°44.534 -999 -999 -999 -999
2007-10-02 06:35:29 51°27.421 2°44.525 -999 -999 -999 -999
2007-10-02 06:35:34 51°27.438 2°44.516 -999 -999 -999 -999
2007-10-02 06:35:39 51°27.455 2°44.506 -999 -999 -999 -999
2007-10-02 06:35:45 51°27.476 2°44.494 -999 -999 -999 -999
2007-10-02 06:35:49 51°27.489 2°44.487 -999 -999 -999 -999
2007-10-02 06:35:54 51°27.506 2°44.478 -999 -999 -999 -999
2007-10-02 06:35:59 51°27.523 2°44.467 -999 -999 -999 -999
2007-10-02 06:36:04 51°27.54 2°44.457 -999 -999 -999 -999